Time;durP1;ratioP1;P1;durP2;ratioP2;P2;SDS_P1;SDS_P2;PMS_P1;PMS_P2;Temp;Humidity;BMP_temperature;BMP_pressure;BME280_temperature;BME280_humidity;BME280_pressure;Samples;Min_cycle;Max_cycle;Signal;HPM_P1;HPM_P2
2023/03/15 00:04:26;;;;;;;5.63;3.67;;;;;;;10.71;39.98;99636.97;10434566;28;20859;-65
2023/03/15 00:09:28;;;;;;;4.60;3.37;;;;;;;11.01;39.26;99634.22;10432355;28;20789;-65
2023/03/15 00:14:30;;;;;;;4.77;3.83;;;;;;;10.47;39.94;99664.88;10434754;28;20274;-65
2023/03/15 00:19:32;;;;;;;4.23;3.67;;;;;;;9.71;40.46;99671.19;10431812;28;20243;-65
2023/03/15 00:24:33;;;;;;;5.90;3.80;;;;;;;8.76;42.35;99648.38;10433518;28;20761;-65
2023/03/15 00:29:35;;;;;;;4.23;2.87;;;;;;;10.30;39.75;99674.97;10430019;28;20247;-65
2023/03/15 00:34:37;;;;;;;6.30;3.60;;;;;;;10.29;39.94;99673.28;10429453;28;20242;-64
2023/03/15 00:39:39;;;;;;;5.67;3.27;;;;;;;10.49;38.77;99724.38;10433968;28;20232;-64
2023/03/15 00:44:42;;;;;;;5.77;2.70;;;;;;;10.03;40.17;99684.47;10434882;28;20228;-64
2023/03/15 00:49:44;;;;;;;2.67;2.47;;;;;;;10.59;39.31;99662.56;10428127;28;20228;-64
2023/03/15 00:54:53;;;;;;;4.77;3.80;;;;;;;9.44;40.30;99706.50;10429732;28;20635;-64
2023/03/15 00:59:56;;;;;;;2.70;2.50;;;;;;;10.43;39.37;99666.28;10433851;28;20232;-64
2023/03/15 01:04:57;;;;;;;4.40;3.93;;;;;;;9.77;39.55;99736.47;10432384;28;20351;-65
2023/03/15 01:10:03;;;;;;;3.07;2.80;;;;;;;10.94;38.43;99674.31;10433816;28;20233;-64
2023/03/15 01:15:07;;;;;;;3.53;3.20;;;;;;;11.39;37.87;99664.25;10431626;28;20221;-65
2023/03/15 01:20:13;;;;;;;3.27;2.70;;;;;;;9.13;40.00;99710.03;10437183;28;20232;-65
2023/03/15 01:25:14;;;;;;;4.43;2.70;;;;;;;9.25;40.73;99691.75;10430845;28;20788;-64
2023/03/15 01:30:16;;;;;;;3.47;2.70;;;;;;;9.25;40.57;99678.41;10432632;28;20220;-64
2023/03/15 01:35:17;;;;;;;3.13;2.90;;;;;;;8.58;40.67;99687.81;10425857;28;20293;-65
2023/03/15 01:40:19;;;;;;;2.63;2.43;;;;;;;8.97;40.88;99690.44;10434389;28;20228;-64
2023/03/15 01:45:48;;;;;;;5.17;3.20;;;;;;;9.78;40.20;99669.44;10429590;28;20232;-64
2023/03/15 01:50:53;;;;;;;3.10;2.40;;;;;;;8.12;41.14;99693.78;10432491;28;20231;-64
2023/03/15 01:55:56;;;;;;;3.03;2.70;;;;;;;9.85;39.77;99684.78;10432598;28;20232;-65
2023/03/15 02:00:58;;;;;;;4.00;2.73;;;;;;;9.11;40.60;99710.25;10433614;28;20230;-64
2023/03/15 02:06:05;;;;;;;3.53;3.23;;;;;;;7.60;42.39;99703.00;10434995;28;20232;-65
2023/03/15 02:11:07;;;;;;;3.77;3.40;;;;;;;7.94;42.58;99674.50;10431604;28;21598;-65
2023/03/15 02:16:09;;;;;;;4.33;3.90;;;;;;;6.57;44.01;99687.31;10435054;28;20224;-67
2023/03/15 02:21:58;;;;;;;3.73;3.43;;;;;;;6.86;43.70;99688.75;10389389;28;20674;-65
2023/03/15 02:27:00;;;;;;;3.40;3.10;;;;;;;7.83;42.00;99697.81;10399445;28;20231;-64
2023/03/15 02:32:03;;;;;;;3.10;2.80;;;;;;;7.73;42.93;99658.03;10390785;28;20286;-65
2023/03/15 02:37:05;;;;;;;5.53;3.23;;;;;;;7.65;42.26;99687.34;10388550;28;20296;-65
2023/03/15 02:42:07;;;;;;;3.57;3.20;;;;;;;6.60;43.53;99698.47;10393510;28;20236;-65
2023/03/15 02:47:31;;;;;;;6.07;3.47;;;;;;;6.23;44.81;99678.34;10390744;28;20235;-65
2023/03/15 02:52:33;;;;;;;4.83;3.23;;;;;;;6.24;44.93;99677.38;10397928;28;20224;-65
2023/03/15 02:57:36;;;;;;;4.77;3.87;;;;;;;5.93;45.00;99685.00;10400944;28;20255;-65
2023/03/15 03:02:39;;;;;;;4.27;3.23;;;;;;;7.74;42.63;99682.81;10408213;28;20281;-65
2023/03/15 03:07:44;;;;;;;6.03;3.57;;;;;;;6.49;43.54;99719.19;10395020;28;20290;-65
2023/03/15 03:12:46;;;;;;;5.37;4.13;;;;;;;5.46;44.97;99723.25;10399430;28;20929;-65
2023/03/15 03:17:47;;;;;;;7.87;3.63;;;;;;;7.11;43.09;99724.25;10393072;28;20318;-65
2023/03/15 03:22:49;;;;;;;4.07;3.60;;;;;;;7.52;42.59;99705.66;10391852;28;20298;-65
2023/03/15 03:27:51;;;;;;;6.50;4.20;;;;;;;6.33;43.73;99749.16;10396524;28;20243;-64
2023/03/15 03:32:52;;;;;;;4.43;4.13;;;;;;;7.79;42.29;99725.78;10389325;28;20947;-64
2023/03/15 03:37:54;;;;;;;5.03;4.07;;;;;;;6.53;43.61;99752.41;10391663;28;22256;-64
2023/03/15 03:42:56;;;;;;;6.17;3.90;;;;;;;7.45;42.54;99742.75;10385080;28;20255;-64
2023/03/15 03:47:58;;;;;;;6.03;3.97;;;;;;;8.48;40.94;99736.00;10393018;28;20232;-65
2023/03/15 03:52:59;;;;;;;4.27;3.87;;;;;;;8.10;41.00;99799.75;10392350;28;20233;-64
2023/03/15 03:58:01;;;;;;;5.00;3.80;;;;;;;7.77;41.31;99807.69;10398938;28;20247;-64
2023/03/15 04:03:04;;;;;;;4.80;4.00;;;;;;;7.03;41.93;99820.00;10383129;28;20243;-64
2023/03/15 04:08:05;;;;;;;5.27;4.17;;;;;;;7.18;43.02;99771.31;10359036;28;20244;-64
2023/03/15 04:13:07;;;;;;;5.10;4.20;;;;;;;8.54;40.89;99771.81;10390368;28;20229;-64
2023/03/15 04:18:08;;;;;;;6.57;4.57;;;;;;;7.81;41.54;99810.84;10388438;28;20240;-64
2023/03/15 04:23:10;;;;;;;7.37;4.00;;;;;;;8.64;41.16;99762.63;10402304;28;20221;-64
2023/03/15 04:28:12;;;;;;;6.50;4.83;;;;;;;7.34;42.52;99798.97;10402378;28;20235;-64
2023/03/15 04:33:13;;;;;;;7.70;5.07;;;;;;;7.90;41.59;99809.91;10388719;28;20236;-64
2023/03/15 04:38:15;;;;;;;7.57;5.27;;;;;;;7.54;41.87;99824.31;10397359;28;20255;-64
2023/03/15 04:43:16;;;;;;;6.77;5.33;;;;;;;8.61;40.84;99767.47;10392970;28;20254;-65
2023/03/15 04:48:18;;;;;;;8.37;4.33;;;;;;;7.98;41.68;99795.75;10394613;28;20231;-65
2023/03/15 04:53:20;;;;;;;6.00;4.83;;;;;;;7.77;42.12;99802.38;10398142;28;20707;-63
2023/03/15 04:58:21;;;;;;;5.30;4.60;;;;;;;6.52;43.34;99839.31;10394404;28;21813;-64
2023/03/15 05:03:23;;;;;;;5.83;4.90;;;;;;;8.44;40.43;99806.69;10399911;28;20244;-65
2023/03/15 05:08:24;;;;;;;5.07;4.23;;;;;;;7.15;41.07;99854.13;10387836;28;20242;-64
2023/03/15 05:13:29;;;;;;;7.50;4.87;;;;;;;8.26;40.53;99814.88;10400040;28;20312;-65
2023/03/15 05:18:31;;;;;;;6.43;4.50;;;;;;;5.86;43.91;99814.91;10389043;28;20224;-65
2023/03/15 05:23:32;;;;;;;5.80;4.17;;;;;;;6.14;43.60;99843.19;10389749;28;20232;-65
2023/03/15 05:28:34;;;;;;;6.10;4.07;;;;;;;7.64;41.10;99845.47;10397861;28;20239;-64
2023/03/15 05:33:36;;;;;;;7.30;4.23;;;;;;;8.90;40.06;99768.72;10392962;28;20608;-65
2023/03/15 05:38:37;;;;;;;5.27;3.80;;;;;;;8.38;40.30;99818.84;10380287;28;20238;-64
2023/03/15 05:43:39;;;;;;;3.87;3.57;;;;;;;4.36;45.85;99846.91;10388889;28;20278;-65
2023/03/15 05:48:41;;;;;;;5.03;4.53;;;;;;;6.50;42.71;99857.25;10375541;28;20255;-65
2023/03/15 05:53:42;;;;;;;11.27;4.97;;;;;;;6.14;43.04;99878.56;10392934;28;21022;-65
2023/03/15 05:58:46;;;;;;;9.70;4.67;;;;;;;7.69;41.74;99808.50;10393868;28;20222;-64
2023/03/15 06:03:48;;;;;;;6.57;4.33;;;;;;;7.29;41.68;99874.00;10399736;28;20296;-65
2023/03/15 06:08:50;;;;;;;6.90;4.47;;;;;;;7.11;41.99;99881.25;10387739;28;20954;-64
2023/03/15 06:13:51;;;;;;;6.40;4.70;;;;;;;8.34;41.17;99817.53;10390570;28;20239;-64
2023/03/15 06:18:53;;;;;;;6.73;4.23;;;;;;;6.63;42.42;99896.72;10394923;28;20232;-65
2023/03/15 06:23:54;;;;;;;5.97;4.43;;;;;;;7.22;42.00;99899.56;10393348;28;20789;-63
2023/03/15 06:28:56;;;;;;;8.57;4.70;;;;;;;7.27;42.64;99875.97;10390621;28;20732;-63
2023/03/15 06:33:58;;;;;;;7.30;4.47;;;;;;;8.16;41.22;99846.22;10399715;28;20236;-64
2023/03/15 06:39:01;;;;;;;6.27;4.50;;;;;;;8.31;40.19;99915.69;10388984;28;20717;-64
2023/03/15 06:44:03;;;;;;;6.80;5.23;;;;;;;8.02;41.33;99867.19;10393037;28;20237;-64
2023/03/15 06:49:05;;;;;;;5.07;4.57;;;;;;;7.70;41.35;99903.41;10386711;28;20237;-64
2023/03/15 06:54:07;;;;;;;8.87;5.33;;;;;;;8.46;41.17;99872.19;10382084;28;20233;-64
2023/03/15 06:59:08;;;;;;;7.27;4.67;;;;;;;8.74;40.09;99927.00;10390846;28;20228;-64
2023/03/15 07:04:10;;;;;;;7.13;4.43;;;;;;;6.91;42.79;99952.47;10397523;28;20260;-65
2023/03/15 07:09:12;;;;;;;5.47;4.43;;;;;;;8.14;41.06;99949.50;10393163;28;20268;-65
2023/03/15 07:14:13;;;;;;;6.10;4.67;;;;;;;9.45;39.50;99906.66;10381083;28;20676;-64
2023/03/15 07:19:15;;;;;;;7.27;4.93;;;;;;;7.43;42.05;99959.59;10381783;28;20294;-64
2023/03/15 07:24:17;;;;;;;6.07;4.33;;;;;;;8.16;41.63;99934.19;10395920;28;20698;-64
2023/03/15 07:29:19;;;;;;;7.63;4.37;;;;;;;9.13;40.38;99887.09;10393085;28;20620;-65
2023/03/15 07:34:21;;;;;;;6.43;5.20;;;;;;;7.63;41.29;99976.13;10404733;28;20586;-64
2023/03/15 07:39:24;;;;;;;6.73;4.70;;;;;;;7.61;42.06;99967.47;10391710;28;20667;-64
2023/03/15 07:44:26;;;;;;;7.50;4.97;;;;;;;8.63;40.54;99990.38;10388084;28;20243;-64
2023/03/15 07:49:27;;;;;;;7.23;4.30;;;;;;;9.55;39.81;99914.44;10400532;28;20231;-64
2023/03/15 07:54:30;;;;;;;6.17;4.20;;;;;;;8.02;40.84;100018.28;10391348;28;20662;-64
2023/03/15 07:59:32;;;;;;;5.30;4.53;;;;;;;7.40;41.88;99991.84;10401257;28;20777;-64
2023/03/15 08:04:34;;;;;;;4.73;4.03;;;;;;;6.83;43.68;99950.59;10397634;28;20279;-64
2023/03/15 08:09:38;;;;;;;6.80;5.77;;;;;;;9.50;40.30;99893.59;10400432;28;20308;-63
2023/03/15 08:14:40;;;;;;;6.43;4.20;;;;;;;8.76;41.78;99911.69;10393036;28;20274;-66
2023/03/15 08:19:41;;;;;;;5.47;4.20;;;;;;;7.32;42.60;99961.50;10388463;28;20699;-64
2023/03/15 08:24:44;;;;;;;5.00;4.20;;;;;;;9.70;40.39;99861.94;10397098;28;20239;-64
2023/03/15 08:29:46;;;;;;;6.10;4.30;;;;;;;8.10;41.24;99989.81;10401308;28;20674;-65
2023/03/15 08:34:47;;;;;;;9.20;4.90;;;;;;;9.90;40.00;99881.03;10404861;28;20245;-65
2023/03/15 08:39:56;;;;;;;6.23;5.17;;;;;;;8.94;40.41;99976.38;10396781;28;20240;-65
2023/03/15 08:45:00;;;;;;;5.37;4.07;;;;;;;8.99;40.13;99950.03;10389426;28;20594;-64
2023/03/15 08:50:04;;;;;;;5.07;4.57;;;;;;;8.44;39.84;100022.72;10379368;28;20981;-64
2023/03/15 08:55:07;;;;;;;5.70;4.07;;;;;;;9.46;39.05;99991.09;10385646;28;20634;-65
2023/03/15 09:00:16;;;;;;;4.90;3.33;;;;;;;9.18;39.13;100020.91;10394415;28;20221;-65
2023/03/15 09:05:19;;;;;;;5.13;4.00;;;;;;;11.27;37.35;99890.78;10375979;28;20241;-64
2023/03/15 09:10:21;;;;;;;6.97;3.93;;;;;;;11.45;36.89;99914.53;10383206;28;20235;-65
2023/03/15 09:15:22;;;;;;;6.60;3.90;;;;;;;11.74;36.79;99926.22;10390856;28;20237;-63
2023/03/15 09:20:27;;;;;;;4.77;3.83;;;;;;;10.29;36.68;100080.69;10387536;28;20236;-65
2023/03/15 09:25:28;;;;;;;7.63;4.23;;;;;;;9.52;37.08;100051.88;10395114;28;20322;-65
2023/03/15 09:30:30;;;;;;;5.23;3.60;;;;;;;11.51;36.95;99940.56;10392477;28;20237;-65
2023/03/15 09:35:32;;;;;;;9.10;3.27;;;;;;;10.77;37.64;100018.19;10387447;28;20256;-64
2023/03/15 09:40:39;;;;;;;4.23;3.13;;;;;;;11.01;36.66;100004.56;10384582;28;20724;-65
2023/03/15 09:46:02;;;;;;;5.87;3.67;;;;;;;10.54;37.24;100056.44;10379255;28;20244;-64
2023/03/15 09:51:17;;;;;;;6.57;3.43;;;;;;;10.92;37.67;99992.28;10393429;28;20299;-64
2023/03/15 09:56:27;;;;;;;5.73;2.63;;;;;;;10.52;36.05;100055.78;10388538;28;20275;-65
2023/03/15 10:01:36;;;;;;;4.57;3.20;;;;;;;10.39;36.20;100088.47;10433532;28;20217;-64
2023/03/15 10:06:44;;;;;;;4.50;3.03;;;;;;;9.03;37.51;100084.81;10428390;28;20244;-65
2023/03/15 10:12:02;;;;;;;2.87;2.60;;;;;;;9.19;37.41;100083.97;10417982;28;20279;-64
2023/03/15 10:17:12;;;;;;;3.90;2.80;;;;;;;9.68;36.45;100074.19;10432731;28;20235;-64
2023/03/15 10:22:16;;;;;;;4.23;2.80;;;;;;;10.12;36.89;100044.31;10428507;28;20554;-64
2023/03/15 10:27:26;;;;;;;2.90;2.57;;;;;;;9.51;36.77;100057.38;10439172;28;20312;-65
2023/03/15 10:32:38;;;;;;;3.70;2.50;;;;;;;9.29;36.91;100075.78;10428846;28;20273;-63
2023/03/15 10:37:41;;;;;;;3.10;2.73;;;;;;;8.84;37.40;100085.09;10425378;28;20798;-65
2023/03/15 10:42:45;;;;;;;4.40;3.40;;;;;;;9.99;36.79;100058.25;10429771;28;20767;-64
2023/03/15 10:47:47;;;;;;;2.83;2.63;;;;;;;10.35;36.01;100094.38;10429318;28;20236;-65
2023/03/15 10:53:07;;;;;;;3.30;2.53;;;;;;;10.97;36.16;100018.53;10436549;28;20314;-65
2023/03/15 10:58:38;;;;;;;2.60;2.40;;;;;;;11.23;37.10;99968.00;10436230;28;20310;-65
2023/03/15 11:06:40;;;;;;;3.97;2.93;;;;;;;6.05;44.27;100020.31;10562134;27;20848;-63
2023/03/15 11:12:02;;;;;;;4.30;3.00;;;;;;;6.43;45.28;99989.09;10465191;28;20226;-63
2023/03/15 11:17:07;;;;;;;4.27;2.80;;;;;;;5.03;48.62;100034.31;10461807;28;20230;-63
2023/03/15 11:22:12;;;;;;;3.90;3.00;;;;;;;4.29;51.66;100011.84;10463567;28;20231;-65
2023/03/15 11:27:17;;;;;;;3.87;3.40;;;;;;;5.22;50.41;99977.75;10472413;28;20237;-63
2023/03/15 11:32:22;;;;;;;4.60;2.70;;;;;;;6.39;49.80;99876.94;10465371;28;20715;-63
2023/03/15 11:37:31;;;;;;;3.10;2.87;;;;;;;6.28;49.79;99886.97;10462724;28;20318;-63
2023/03/15 11:42:42;;;;;;;4.10;3.50;;;;;;;6.53;48.87;99960.66;10464521;28;20228;-63
2023/03/15 11:47:58;;;;;;;3.63;3.03;;;;;;;7.28;49.75;99906.94;10465103;28;20240;-63
2023/03/15 11:53:02;;;;;;;5.17;2.97;;;;;;;7.02;48.53;99907.00;10457429;28;20238;-64
2023/03/15 11:58:29;;;;;;;3.23;2.70;;;;;;;7.07;48.64;99890.53;10466340;28;20250;-63
2023/03/15 12:03:35;;;;;;;2.63;2.40;;;;;;;6.86;48.36;99931.66;10456511;28;20771;-64
2023/03/15 12:08:49;;;;;;;4.00;3.60;;;;;;;8.88;46.94;99771.56;10460469;28;20224;-64
2023/03/15 12:13:56;;;;;;;4.40;3.30;;;;;;;7.01;49.01;99920.44;10460300;28;20228;-64
2023/03/15 12:19:02;;;;;;;6.33;3.23;;;;;;;7.68;48.25;99916.06;10433155;28;20854;-64
2023/03/15 12:24:07;;;;;;;3.07;2.87;;;;;;;6.95;48.53;99975.09;10441574;28;20220;-63
2023/03/15 12:29:15;;;;;;;3.40;3.10;;;;;;;6.66;49.08;100000.13;10429893;28;20231;-64
2023/03/15 12:34:28;;;;;;;4.10;3.20;;;;;;;8.16;47.60;99894.19;10441981;28;20279;-64
2023/03/15 12:39:38;;;;;;;4.73;3.27;;;;;;;9.81;46.03;99788.53;10439885;28;20596;-64
2023/03/15 12:44:42;;;;;;;3.23;2.93;;;;;;;8.74;47.35;99887.84;10435505;28;20239;-63
2023/03/15 12:49:45;;;;;;;4.73;3.30;;;;;;;9.58;46.13;99856.16;10436243;28;20305;-64
2023/03/15 12:55:13;;;;;;;3.80;3.50;;;;;;;10.20;44.50;99848.22;10437808;28;20235;-63
2023/03/15 13:00:19;;;;;;;3.43;2.93;;;;;;;10.65;44.44;99828.56;10435778;28;20227;-64
2023/03/15 13:05:23;;;;;;;3.50;3.20;;;;;;;10.22;43.68;99895.16;10434691;28;20779;-64
2023/03/15 13:10:53;;;;;;;4.57;3.40;;;;;;;9.14;44.92;99962.66;10437393;28;20323;-63
2023/03/15 13:16:34;;;;;;;4.43;3.27;;;;;;;10.06;43.28;99920.19;10433891;28;20249;-63
2023/03/15 13:21:58;;;;;;;3.77;3.20;;;;;;;11.83;40.85;99846.50;10392692;28;20227;-64
2023/03/15 13:27:15;;;;;;;3.10;2.70;;;;;;;10.59;41.24;99928.28;10394252;28;20764;-64
2023/03/15 13:32:20;;;;;;;2.73;2.50;;;;;;;9.27;42.88;99995.00;10398588;28;20689;-63
2023/03/15 13:37:30;;;;;;;3.83;3.30;;;;;;;8.36;45.54;100044.84;10399142;28;20599;-63
2023/03/15 13:42:32;;;;;;;5.70;3.67;;;;;;;8.59;46.80;100022.88;10390842;28;20232;-64
2023/03/15 13:47:34;;;;;;;3.70;3.30;;;;;;;8.89;46.34;99965.38;10400835;28;20635;-64
2023/03/15 13:52:36;;;;;;;2.67;2.30;;;;;;;7.43;46.93;100063.44;10386542;28;20235;-64
2023/03/15 13:57:37;;;;;;;2.50;2.30;;;;;;;7.92;46.86;100045.06;10384550;28;20233;-63
2023/03/15 14:02:42;;;;;;;3.00;2.80;;;;;;;7.59;47.20;100036.88;10392894;28;20733;-63
2023/03/15 14:07:50;;;;;;;3.07;2.80;;;;;;;8.23;46.43;99992.00;10381148;28;20268;-64
2023/03/15 14:12:52;;;;;;;3.50;2.87;;;;;;;10.65;43.18;99930.25;10389450;28;20230;-64
2023/03/15 14:18:03;;;;;;;2.83;2.63;;;;;;;10.37;43.76;99954.06;10388113;28;20233;-64
2023/03/15 14:23:10;;;;;;;3.20;2.90;;;;;;;9.60;44.51;100034.97;10386302;28;20592;-64
2023/03/15 14:28:15;;;;;;;2.60;2.27;;;;;;;8.09;45.42;100073.44;10389513;28;20237;-63
2023/03/15 14:33:32;;;;;;;3.60;2.80;;;;;;;11.34;42.47;99939.94;10388960;28;20252;-63
2023/03/15 14:38:37;;;;;;;3.33;2.80;;;;;;;11.42;42.61;99939.84;10390690;28;20315;-64
2023/03/15 14:43:38;;;;;;;3.50;3.20;;;;;;;11.77;42.20;99920.50;10379049;28;20236;-64
2023/03/15 14:48:40;;;;;;;3.23;2.93;;;;;;;12.45;41.75;99922.81;10386773;28;20714;-64
2023/03/15 14:53:43;;;;;;;3.00;2.73;;;;;;;11.66;42.42;99948.63;10386089;28;20232;-64
2023/03/15 14:58:44;;;;;;;3.27;2.77;;;;;;;11.51;42.93;99959.34;10384693;28;20235;-64
2023/03/15 15:04:06;;;;;;;3.03;2.40;;;;;;;11.12;42.53;100026.56;10389856;28;20256;-68
2023/03/15 15:09:09;;;;;;;5.13;3.63;;;;;;;10.32;42.89;100056.22;10384013;28;20225;-64
2023/03/15 15:14:14;;;;;;;3.40;3.10;;;;;;;11.55;41.26;100038.34;10380797;28;20232;-64
2023/03/15 15:19:16;;;;;;;5.70;2.90;;;;;;;9.93;43.04;100099.88;10384540;28;20229;-63
2023/03/15 15:24:23;;;;;;;3.00;2.30;;;;;;;10.90;42.06;100029.13;10380063;28;20240;-63
2023/03/15 15:29:24;;;;;;;3.93;2.70;;;;;;;13.85;39.07;99969.38;10384833;28;20225;-63
2023/03/15 15:34:26;;;;;;;3.50;3.20;;;;;;;12.80;40.04;99977.44;10397141;28;20282;-63
2023/03/15 15:39:28;;;;;;;3.20;2.90;;;;;;;12.70;39.75;99976.94;10393718;28;20237;-63
2023/03/15 15:44:30;;;;;;;4.23;2.97;;;;;;;13.33;39.57;99982.41;10393388;28;20237;-63
2023/03/15 15:49:31;;;;;;;5.23;3.50;;;;;;;11.83;40.65;100048.44;10402216;28;20255;-64
2023/03/15 15:54:34;;;;;;;3.93;2.87;;;;;;;13.17;39.44;99990.72;10405033;28;20746;-63
2023/03/15 15:59:36;;;;;;;3.50;3.20;;;;;;;13.08;40.34;100001.63;10404820;28;20729;-64
2023/03/15 16:04:37;;;;;;;3.37;3.07;;;;;;;11.69;42.03;100060.00;10401486;28;20245;-64
2023/03/15 16:09:45;;;;;;;5.33;3.90;;;;;;;11.18;42.41;100090.94;10410502;28;20265;-64
2023/03/15 16:14:47;;;;;;;4.63;3.27;;;;;;;11.59;41.74;100073.63;10408152;28;20279;-65
2023/03/15 16:19:50;;;;;;;5.67;4.50;;;;;;;12.52;40.41;100005.09;10400822;28;20734;-63
2023/03/15 16:24:55;;;;;;;3.63;3.33;;;;;;;13.10;39.33;99998.75;10404666;28;20240;-64
2023/03/15 16:29:57;;;;;;;7.33;4.43;;;;;;;13.00;39.16;100025.13;10398515;28;20744;-63
2023/03/15 16:34:59;;;;;;;6.20;3.40;;;;;;;11.81;41.31;100075.44;10390465;28;20241;-63
2023/03/15 16:40:08;;;;;;;3.60;3.30;;;;;;;13.06;39.10;99998.31;10406802;28;20249;-64
2023/03/15 16:45:12;;;;;;;3.70;3.40;;;;;;;13.38;38.86;99989.84;10390031;28;20348;-63
2023/03/15 16:50:14;;;;;;;5.47;4.80;;;;;;;13.24;39.35;100024.66;10391156;28;20231;-63
2023/03/15 16:55:23;;;;;;;6.30;4.30;;;;;;;13.86;38.20;100016.78;10393172;28;20264;-64
2023/03/15 17:00:24;;;;;;;6.53;3.70;;;;;;;13.62;38.26;100026.19;10400178;28;20233;-63
2023/03/15 17:05:26;;;;;;;6.70;3.70;;;;;;;12.29;40.97;100079.53;10392313;28;20668;-64
2023/03/15 17:10:30;;;;;;;3.90;3.47;;;;;;;12.61;40.29;100042.56;10391271;28;20229;-64
2023/03/15 17:15:32;;;;;;;4.13;3.33;;;;;;;13.83;38.60;100001.03;10384538;28;20230;-63
2023/03/15 17:20:33;;;;;;;5.10;4.50;;;;;;;13.76;38.96;100025.22;10389322;28;20233;-63
2023/03/15 17:25:35;;;;;;;3.50;3.17;;;;;;;13.84;38.38;100027.72;10385305;28;20249;-63
2023/03/15 17:30:37;;;;;;;4.27;3.20;;;;;;;13.00;38.82;100047.44;10389407;28;20325;-63
2023/03/15 17:35:43;;;;;;;4.17;2.97;;;;;;;13.32;38.99;100018.34;10388746;28;20247;-63
2023/03/15 17:40:44;;;;;;;3.80;3.40;;;;;;;11.63;40.46;100107.97;10391639;28;20225;-64
2023/03/15 17:45:46;;;;;;;3.27;2.97;;;;;;;12.24;40.70;100084.66;10389383;28;20241;-64
2023/03/15 17:50:48;;;;;;;3.30;3.00;;;;;;;12.00;40.45;100066.00;10387624;28;20235;-64
2023/03/15 17:55:52;;;;;;;3.30;2.80;;;;;;;12.10;40.33;100078.28;10388568;28;20233;-64
2023/03/15 18:00:54;;;;;;;3.10;2.80;;;;;;;12.66;39.95;100019.47;10398126;28;20665;-64
2023/03/15 18:05:56;;;;;;;3.40;3.10;;;;;;;9.95;42.80;100068.44;10392379;28;20276;-64
2023/03/15 18:10:57;;;;;;;4.87;3.60;;;;;;;12.54;40.20;100058.59;10396354;28;20226;-64
2023/03/15 18:15:59;;;;;;;8.33;3.93;;;;;;;12.02;40.15;100108.72;10389606;28;20708;-64
2023/03/15 18:21:01;;;;;;;8.47;7.13;;;;;;;11.98;40.19;100099.41;10394436;28;20312;-65
2023/03/15 18:26:03;;;;;;;6.87;5.30;;;;;;;12.91;39.40;100056.66;10390811;28;20229;-63
2023/03/15 18:31:20;;;;;;;4.60;4.10;;;;;;;13.63;37.85;100030.53;10398283;28;20227;-64
2023/03/15 18:36:22;;;;;;;4.90;3.70;;;;;;;13.96;37.46;100049.50;10431851;28;20581;-63
2023/03/15 18:41:23;;;;;;;9.73;6.23;;;;;;;13.41;37.70;100070.94;10438071;28;20228;-63
2023/03/15 18:46:25;;;;;;;7.97;6.50;;;;;;;12.96;38.36;100112.47;10389998;28;20238;-63
2023/03/15 18:51:27;;;;;;;8.43;5.77;;;;;;;11.68;40.34;100144.13;10385445;28;20202;-63
2023/03/15 18:56:33;;;;;;;6.87;5.60;;;;;;;11.55;40.25;100132.13;10428484;28;20660;-63
2023/03/15 19:01:34;;;;;;;9.47;6.10;;;;;;;13.07;38.26;100077.03;10418391;28;20719;-63
2023/03/15 19:06:36;;;;;;;9.20;6.27;;;;;;;13.65;37.71;100079.56;10419350;28;20252;-63
2023/03/15 19:11:40;;;;;;;7.30;6.50;;;;;;;13.63;37.41;100082.47;10423087;28;20227;-63
2023/03/15 19:16:42;;;;;;;7.83;6.37;;;;;;;13.07;38.08;100109.28;10418515;28;20316;-63
2023/03/15 19:21:43;;;;;;;7.27;5.30;;;;;;;12.11;39.87;100102.22;10418071;28;20286;-63
2023/03/15 19:26:45;;;;;;;9.47;7.80;;;;;;;10.81;41.08;100156.81;10426164;28;20601;-64
2023/03/15 19:31:47;;;;;;;4.67;4.17;;;;;;;10.70;41.87;100149.19;10426812;28;20778;-63
2023/03/15 19:36:48;;;;;;;4.83;4.30;;;;;;;10.26;42.67;100145.22;10435181;28;20237;-63
2023/03/15 19:41:50;;;;;;;6.63;4.90;;;;;;;10.86;42.07;100108.94;10429139;28;20234;-62
2023/03/15 19:46:51;;;;;;;6.70;4.10;;;;;;;12.67;39.56;100048.00;10432979;28;20725;-64
2023/03/15 19:51:53;;;;;;;6.57;4.13;;;;;;;11.49;40.55;100138.25;10426419;28;20243;-64
2023/03/15 19:56:57;;;;;;;4.93;4.30;;;;;;;11.27;41.26;100142.59;10431790;28;20238;-66
2023/03/15 20:01:58;;;;;;;4.83;4.37;;;;;;;10.77;42.20;100135.97;10433211;28;20241;-66
2023/03/15 20:07:00;;;;;;;5.00;4.60;;;;;;;10.78;42.48;100106.34;10429324;28;20235;-61
2023/03/15 20:12:02;;;;;;;7.97;5.23;;;;;;;9.49;44.01;100136.88;10428701;28;20235;-60
2023/03/15 20:17:04;;;;;;;5.77;5.27;;;;;;;9.40;44.21;100131.53;10432290;28;20239;-62
2023/03/15 20:22:06;;;;;;;22.53;15.47;;;;;;;12.00;40.41;100057.13;10423539;28;20231;-61
2023/03/15 20:27:09;;;;;;;8.80;7.13;;;;;;;11.36;40.91;100130.81;10429178;28;20228;-61
2023/03/15 20:32:11;;;;;;;10.80;5.87;;;;;;;12.36;39.66;100057.13;10425829;28;20228;-62
2023/03/15 20:37:13;;;;;;;6.97;5.40;;;;;;;11.66;40.53;100116.66;10431871;28;20231;-64
2023/03/15 20:42:14;;;;;;;7.07;5.13;;;;;;;11.17;40.88;100142.00;10425875;28;20224;-62
2023/03/15 20:47:16;;;;;;;6.73;5.13;;;;;;;11.54;40.00;100135.00;10420906;28;20239;-63
2023/03/15 20:52:18;;;;;;;6.90;5.40;;;;;;;11.50;40.39;100164.00;10421826;28;20228;-62
2023/03/15 20:57:20;;;;;;;7.33;6.33;;;;;;;10.83;41.24;100168.22;10423079;28;20227;-63
2023/03/15 21:02:21;;;;;;;9.10;5.93;;;;;;;12.39;39.38;100098.84;10420031;28;20240;-63
2023/03/15 21:07:23;;;;;;;5.87;4.80;;;;;;;10.67;41.03;100171.78;10425266;28;20236;-64
2023/03/15 21:12:25;;;;;;;5.50;5.00;;;;;;;9.70;42.57;100155.88;10422509;28;20259;-63
2023/03/15 21:17:27;;;;;;;7.63;5.57;;;;;;;10.94;41.07;100174.16;10421924;28;20243;-62
2023/03/15 21:22:28;;;;;;;7.93;5.50;;;;;;;9.13;43.44;100158.53;10420794;28;20220;-62
2023/03/15 21:27:31;;;;;;;9.33;5.23;;;;;;;10.80;41.19;100157.84;10424009;28;20610;-63
2023/03/15 21:32:34;;;;;;;7.03;4.77;;;;;;;10.62;41.69;100167.97;10427629;28;20243;-62
2023/03/15 21:37:36;;;;;;;5.40;4.90;;;;;;;10.99;41.02;100150.38;10427579;28;20230;-62
2023/03/15 21:42:38;;;;;;;6.03;4.80;;;;;;;10.14;41.95;100174.19;10422978;28;20236;-61
2023/03/15 21:47:40;;;;;;;6.50;5.23;;;;;;;10.06;42.90;100143.97;10416994;28;20243;-65
2023/03/15 21:52:43;;;;;;;7.13;5.20;;;;;;;11.01;40.92;100138.44;10421452;28;20232;-61
2023/03/15 21:57:45;;;;;;;6.10;5.00;;;;;;;11.91;39.76;100106.50;10436225;28;20228;-64
2023/03/15 22:02:47;;;;;;;5.60;4.97;;;;;;;11.35;40.03;100158.59;10422627;28;20709;-62
2023/03/15 22:07:49;;;;;;;8.43;6.53;;;;;;;11.04;40.07;100178.28;10429380;28;20235;-61
2023/03/15 22:12:54;;;;;;;7.43;6.10;;;;;;;10.78;40.57;100185.78;10429044;28;20236;-62
2023/03/15 22:17:56;;;;;;;7.00;6.17;;;;;;;11.84;39.16;100133.22;10427908;28;20899;-61
2023/03/15 22:22:57;;;;;;;5.97;5.37;;;;;;;10.97;40.33;100180.00;10418431;28;20286;-62
2023/03/15 22:28:00;;;;;;;6.00;5.40;;;;;;;9.96;42.02;100182.41;10428408;28;20263;-62
2023/03/15 22:33:02;;;;;;;5.50;5.00;;;;;;;9.60;42.49;100181.91;10419686;28;20875;-62
2023/03/15 22:38:08;;;;;;;5.50;5.00;;;;;;;10.07;41.87;100167.00;10417840;28;20496;-63
2023/03/15 22:43:10;;;;;;;7.10;5.90;;;;;;;8.48;44.93;100144.06;10424157;28;20248;-62
2023/03/15 22:48:12;;;;;;;8.23;6.00;;;;;;;10.17;42.39;100150.75;10410385;28;20768;-62
2023/03/15 22:53:13;;;;;;;7.43;6.67;;;;;;;9.35;43.69;100143.72;10422058;28;20240;-61
2023/03/15 22:58:15;;;;;;;9.07;6.93;;;;;;;9.72;42.67;100127.13;10419651;28;20231;-62
2023/03/15 23:03:17;;;;;;;7.63;6.93;;;;;;;8.49;44.08;100132.41;10425149;28;20251;-62
2023/03/15 23:08:18;;;;;;;12.67;10.20;;;;;;;7.65;45.80;100112.66;10418240;28;20712;-63
2023/03/15 23:13:20;;;;;;;8.37;7.57;;;;;;;7.15;46.11;100108.81;10422996;28;20278;-63
2023/03/15 23:18:22;;;;;;;12.07;8.67;;;;;;;9.13;44.11;100073.97;10423539;28;20714;-62
2023/03/15 23:23:25;;;;;;;12.17;9.77;;;;;;;7.84;45.62;100120.44;10422766;28;20236;-63
2023/03/15 23:28:28;;;;;;;13.60;8.80;;;;;;;7.36;46.09;100111.16;10416036;28;20256;-63
2023/03/15 23:33:32;;;;;;;8.70;7.80;;;;;;;6.15;46.99;100106.09;10426291;28;20239;-63
2023/03/15 23:38:34;;;;;;;11.00;9.57;;;;;;;5.11;49.02;100122.81;10421800;28;20243;-65
2023/03/15 23:43:36;;;;;;;9.43;8.27;;;;;;;6.56;46.53;100105.72;10417582;28;20227;-62